Terminal Aerodrome Forecast
Issued by NWS

Home | Current Version | Previous Version | Text Only | Print | Product List | Glossary Off
Versions: 1 2 3 4 5 6 7 8 9 10 11 12 13 14 15 16 17 18 19 20 21 22 23 24 25 26 27 28 29 30 31

985
FTUS43 KBIS 210545
TAFDIK
TAF
KDIK 210545Z 2106/2206 17011KT P6SM BKN080 OVC110
     FM210800 24011KT P6SM SCT150 SCT300
     FM211100 25011KT P6SM SCT250
     FM211900 24012KT P6SM BKN080 OVC100
     FM212300 26017G25KT P6SM SCT100 WS020/26040KT
     FM220200 27011KT P6SM SCT100=

USA.gov is the U.S. government's official web portal to all federal, state and local government web resources and services.